LGRP/RHO METAR and TAF weather

Enter ICAO airport designator
Station Type Date Time Source
LGRP METAR 2018/12/19 09:20 UTC NOAA

LGRP 190920Z 31009KT 9999 FEW010 FEW018TCU SCT020 15/11 Q1013 NOSIG


Station Type Date Time Source
LGRP Decoded METAR 2018/12/19 09:20 UTC NOAA

Rhodes Airport , Greece (LGRP) 36-24N 028-05E 11M
Dec 19, 2018 - 04:20 AM EST / 2018.12.19 0920 UTC
Wind: from the NW (310 degrees) at 10 MPH (9 KT):0
Visibility: greater than 7 mile(s):0
Sky conditions: partly cloudy
Weather: Towering cumulus clouds observed
Temperature: 59 F (15 C)
Dew Point: 51 F (11 C)
Relative Humidity: 76%
Pressure (altimeter): 29.91 in. Hg (1013 hPa)
ob: LGRP 190920Z 31009KT 9999 FEW010 FEW018TCU SCT020 15/11 Q1013 NOSIG
cycle: 9

Station Type Date Time Source
LGRP TAF 2018/12/19 06:12 UTC NOAA

TAF LGRP 190500Z 1906/2006 29010KT 9999 SCT010 FEW015TCU BKN018 PROB40
TEMPO 1906/1918 5000 RA PROB30
TEMPO 1906/1909 4000 TSRA SCT008 SCT015CB OVC018
BECMG 1910/1912 29015G25KT


Example: see airport list